createdAt,value
2023-04-06T00:00:27.196Z,4.80
2023-04-06T00:02:30.733Z,5.35
2023-04-06T00:04:34.315Z,4.88
2023-04-06T00:06:37.793Z,4.97
2023-04-06T00:08:42.367Z,5.47
2023-04-06T00:10:46.161Z,5.10
2023-04-06T00:12:49.641Z,5.10
2023-04-06T00:14:53.162Z,4.85
2023-04-06T00:16:58.111Z,5.10
2023-04-06T00:19:02.036Z,4.93
2023-04-06T00:21:06.839Z,5.70
2023-04-06T00:23:10.576Z,5.75
2023-04-06T00:25:16.387Z,5.50
2023-04-06T00:27:19.922Z,5.47
2023-04-06T00:29:26.623Z,5.38
2023-04-06T00:31:30.223Z,5.30
2023-04-06T00:33:37.949Z,4.82
2023-04-06T00:35:41.580Z,5.20
2023-04-06T00:37:45.490Z,5.55
2023-04-06T00:39:52.629Z,5.00
2023-04-06T00:41:56.384Z,5.15
2023-04-06T00:44:00.284Z,5.43
2023-04-06T00:46:04.013Z,4.95
2023-04-06T00:48:10.979Z,5.95
2023-04-06T00:50:16.098Z,5.68
2023-04-06T00:52:20.003Z,5.80
2023-04-06T00:54:24.784Z,5.15
2023-04-06T00:56:28.892Z,5.25
2023-04-06T00:58:32.468Z,5.40
2023-04-06T01:00:42.809Z,6.57
2023-04-06T01:02:52.555Z,5.82
2023-04-06T01:04:59.270Z,5.75
2023-04-06T01:07:14.396Z,5.55
2023-04-06T01:09:27.322Z,5.55
2023-04-06T01:11:31.118Z,5.50
2023-04-06T01:13:34.985Z,5.55
2023-04-06T01:15:42.488Z,5.80
2023-04-06T01:17:48.986Z,5.65
2023-04-06T01:19:55.848Z,5.93
2023-04-06T01:22:04.679Z,5.97
2023-04-06T01:24:11.395Z,5.28
2023-04-06T01:26:38.067Z,5.55
2023-04-06T01:28:45.676Z,6.00
2023-04-06T01:31:02.034Z,6.03
2023-04-06T01:33:27.600Z,6.20
2023-04-06T01:35:37.527Z,5.65
2023-04-06T01:37:51.419Z,6.25
2023-04-06T01:40:05.387Z,5.97
2023-04-06T01:42:24.036Z,5.50
2023-04-06T01:44:28.052Z,6.35
2023-04-06T01:46:42.564Z,6.43
2023-04-06T01:48:47.779Z,6.20
2023-04-06T01:50:56.761Z,6.07
2023-04-06T01:53:06.352Z,6.30
2023-04-06T01:55:12.385Z,6.00
2023-04-06T01:57:34.589Z,6.07
2023-04-06T01:59:55.547Z,6.00
2023-04-06T02:02:05.948Z,5.90
2023-04-06T02:04:18.858Z,6.05
2023-04-06T02:06:25.994Z,6.40
2023-04-06T02:08:29.626Z,6.30
2023-04-06T02:10:36.626Z,6.57
2023-04-06T02:12:48.513Z,6.55
2023-04-06T02:14:58.273Z,6.43
2023-04-06T02:17:01.879Z,6.30
2023-04-06T02:19:05.433Z,6.63
2023-04-06T02:21:09.707Z,7.10
2023-04-06T02:23:15.115Z,6.13
2023-04-06T02:25:19.425Z,6.63
2023-04-06T02:27:24.679Z,6.28
2023-04-06T02:29:28.213Z,6.45
2023-04-06T02:31:31.967Z,6.40
2023-04-06T02:33:36.095Z,6.60
2023-04-06T02:35:40.104Z,5.90
2023-04-06T02:37:44.680Z,6.13
2023-04-06T02:39:48.468Z,6.45
2023-04-06T02:41:53.026Z,5.78
2023-04-06T02:44:01.683Z,6.90
2023-04-06T02:46:14.353Z,5.97
2023-04-06T02:48:21.773Z,6.18
2023-04-06T02:50:27.196Z,6.63
2023-04-06T02:52:36.520Z,6.22
2023-04-06T02:54:40.642Z,7.13
2023-04-06T02:56:44.184Z,6.80
2023-04-06T02:58:48.410Z,6.90
2023-04-06T03:00:53.382Z,7.00
2023-04-06T03:02:57.445Z,6.57
2023-04-06T03:05:04.253Z,7.18
2023-04-06T03:07:12.052Z,6.45
2023-04-06T03:09:17.023Z,7.03
2023-04-06T03:11:21.892Z,6.82
2023-04-06T03:13:27.691Z,7.65
2023-04-06T03:15:34.310Z,7.15
2023-04-06T03:17:50.002Z,7.25
2023-04-06T03:20:08.238Z,6.80
2023-04-06T03:22:12.001Z,6.88
2023-04-06T03:24:16.053Z,6.97
2023-04-06T03:26:20.477Z,7.32
2023-04-06T03:28:24.012Z,7.35
2023-04-06T03:30:31.828Z,10.60
2023-04-06T03:32:35.764Z,7.88
2023-04-06T03:34:41.653Z,7.50
2023-04-06T03:36:46.296Z,7.57
2023-04-06T03:38:51.498Z,7.18
2023-04-06T03:40:56.751Z,7.38
2023-04-06T03:43:03.401Z,7.97
2023-04-06T03:45:10.925Z,8.20
2023-04-06T03:47:21.177Z,11.57
2023-04-06T03:49:25.189Z,9.40
2023-04-06T03:51:31.852Z,7.63
2023-04-06T03:53:35.508Z,7.53
2023-04-06T03:55:39.106Z,7.47
2023-04-06T03:57:42.711Z,8.82
2023-04-06T03:59:46.424Z,7.88
2023-04-06T04:01:50.001Z,7.60
2023-04-06T04:03:53.765Z,8.00
2023-04-06T04:05:57.439Z,7.25
2023-04-06T04:08:04.115Z,7.88
2023-04-06T04:10:09.136Z,7.75
2023-04-06T04:12:12.706Z,8.07
2023-04-06T04:14:16.260Z,8.10
2023-04-06T04:16:19.866Z,7.90
2023-04-06T04:18:23.532Z,7.20
2023-04-06T04:20:27.149Z,7.80
2023-04-06T04:22:30.739Z,7.40
2023-04-06T04:24:36.175Z,7.95
2023-04-06T04:26:40.720Z,8.73
2023-04-06T04:28:44.496Z,7.68
2023-04-06T04:30:48.493Z,8.65
2023-04-06T04:32:52.507Z,8.20
2023-04-06T04:34:58.997Z,8.07
2023-04-06T04:37:12.309Z,8.57
2023-04-06T04:39:28.557Z,8.40
2023-04-06T04:41:41.211Z,8.38
2023-04-06T04:43:47.107Z,8.95
2023-04-06T04:45:55.556Z,8.55
2023-04-06T04:48:14.218Z,8.18
2023-04-06T04:50:34.946Z,8.52
2023-04-06T04:52:39.640Z,8.48
2023-04-06T04:54:53.110Z,8.32
2023-04-06T04:57:03.690Z,8.88
2023-04-06T04:59:17.540Z,8.75
2023-04-06T05:01:27.868Z,8.98
2023-04-06T05:03:32.214Z,8.20
2023-04-06T05:05:39.283Z,9.23
2023-04-06T05:07:43.686Z,8.63
2023-04-06T05:09:54.248Z,8.85
2023-04-06T05:12:00.966Z,8.93
2023-04-06T05:14:07.344Z,8.80
2023-04-06T05:16:11.215Z,9.18
2023-04-06T05:18:15.240Z,8.48
2023-04-06T05:20:18.892Z,9.27
2023-04-06T05:22:26.578Z,9.02
2023-04-06T05:24:47.541Z,10.13
2023-04-06T05:26:51.590Z,8.60
2023-04-06T05:28:59.806Z,9.30
2023-04-06T05:31:07.561Z,9.35
2023-04-06T05:33:20.969Z,8.80
2023-04-06T05:35:39.407Z,8.73
2023-04-06T05:37:48.076Z,8.82
2023-04-06T05:39:51.933Z,9.07
2023-04-06T05:41:56.541Z,9.63
2023-04-06T05:44:14.987Z,8.95
2023-04-06T05:46:23.551Z,9.20
2023-04-06T05:48:27.504Z,8.48
2023-04-06T05:50:31.352Z,9.07
2023-04-06T05:52:36.071Z,8.50
2023-04-06T05:54:39.744Z,8.85
2023-04-06T05:56:43.491Z,8.85
2023-04-06T05:58:49.111Z,9.68
2023-04-06T06:00:59.896Z,8.25
2023-04-06T06:03:09.670Z,9.30
2023-04-06T06:05:14.854Z,8.27
2023-04-06T06:07:19.585Z,8.45
2023-04-06T06:09:33.098Z,8.18
2023-04-06T06:11:45.949Z,8.50
2023-04-06T06:13:51.901Z,7.82
2023-04-06T06:15:55.516Z,8.50
2023-04-06T06:18:00.276Z,8.40
2023-04-06T06:20:06.734Z,8.23
2023-04-06T06:22:10.641Z,8.20
2023-04-06T06:24:18.058Z,8.98
2023-04-06T06:26:21.880Z,9.40
2023-04-06T06:28:27.391Z,9.45
2023-04-06T06:30:31.030Z,8.30
2023-04-06T06:32:35.016Z,8.40
2023-04-06T06:34:38.644Z,8.07
2023-04-06T06:36:47.864Z,8.10
2023-04-06T06:38:53.219Z,8.32
2023-04-06T06:40:58.230Z,8.63
2023-04-06T06:43:04.791Z,9.02
2023-04-06T06:45:23.227Z,9.15
2023-04-06T06:47:27.284Z,8.20
2023-04-06T06:49:30.776Z,8.85
2023-04-06T06:51:34.415Z,8.60
2023-04-06T06:53:40.076Z,8.52
2023-04-06T06:55:45.268Z,8.32
2023-04-06T06:57:49.143Z,8.43
2023-04-06T06:59:52.927Z,9.05
2023-04-06T07:01:57.992Z,8.73
2023-04-06T07:04:01.617Z,8.65
2023-04-06T07:06:05.659Z,8.05
2023-04-06T07:08:09.189Z,8.30
2023-04-06T07:10:14.388Z,8.15
2023-04-06T07:12:18.262Z,7.95
2023-04-06T07:14:21.943Z,7.68
2023-04-06T07:16:25.702Z,7.90
2023-04-06T07:18:32.891Z,8.38
2023-04-06T07:20:38.380Z,7.30
2023-04-06T07:22:41.895Z,7.63
2023-04-06T07:24:45.595Z,7.38
2023-04-06T07:26:50.494Z,7.32
2023-04-06T07:28:54.130Z,6.70
2023-04-06T07:31:00.115Z,6.57
2023-04-06T07:33:03.909Z,6.22
2023-04-06T07:35:08.363Z,6.00
2023-04-06T07:37:12.244Z,6.57
2023-04-06T07:39:16.002Z,6.25
2023-04-06T07:41:19.700Z,6.00
2023-04-06T07:43:24.643Z,5.93
2023-04-06T07:45:28.777Z,5.82
2023-04-06T07:47:33.223Z,5.75
2023-04-06T07:49:37.618Z,6.00
2023-04-06T07:51:42.748Z,5.78
2023-04-06T07:53:46.644Z,5.57
2023-04-06T07:55:50.154Z,5.45
2023-04-06T07:57:53.781Z,4.85
2023-04-06T07:59:58.751Z,5.35
2023-04-06T08:02:02.679Z,5.15
2023-04-06T08:04:06.615Z,5.15
2023-04-06T08:06:10.428Z,4.95
2023-04-06T08:08:14.016Z,5.47
2023-04-06T08:10:17.788Z,5.18
2023-04-06T08:12:21.348Z,5.20
2023-04-06T08:14:24.864Z,5.10
2023-04-06T08:16:29.832Z,5.22
2023-04-06T08:18:33.410Z,4.95
2023-04-06T08:20:37.080Z,4.28
2023-04-06T08:22:41.032Z,4.75
2023-04-06T08:24:44.622Z,5.15
2023-04-06T08:26:48.185Z,5.20
2023-04-06T08:28:51.782Z,5.45
2023-04-06T08:30:55.452Z,5.28
2023-04-06T08:33:00.581Z,5.10
2023-04-06T08:35:04.157Z,5.90
2023-04-06T08:37:08.602Z,4.78
2023-04-06T08:39:12.248Z,5.38
2023-04-06T08:41:16.163Z,5.40
2023-04-06T08:43:22.760Z,6.18
2023-04-06T08:45:26.537Z,6.20
2023-04-06T08:47:30.754Z,5.63
2023-04-06T08:49:36.984Z,6.07
2023-04-06T08:51:40.556Z,5.50
2023-04-06T08:53:44.336Z,5.72
2023-04-06T08:55:48.045Z,6.55
2023-04-06T08:57:54.486Z,5.32
2023-04-06T08:59:59.300Z,5.68
2023-04-06T09:02:06.650Z,5.55
2023-04-06T09:04:12.668Z,5.75
2023-04-06T09:06:18.829Z,5.80
2023-04-06T09:08:22.308Z,5.63
2023-04-06T09:10:26.879Z,5.40
2023-04-06T09:12:31.803Z,4.72
2023-04-06T09:14:39.047Z,4.93
2023-04-06T09:16:43.552Z,5.25
2023-04-06T09:18:47.589Z,5.25
2023-04-06T09:20:59.773Z,4.60
2023-04-06T09:23:04.694Z,4.85
2023-04-06T09:25:10.532Z,4.25
2023-04-06T09:27:14.755Z,3.72
2023-04-06T09:29:28.372Z,4.25
2023-04-06T09:31:34.640Z,4.40
2023-04-06T09:33:40.872Z,4.07
2023-04-06T09:35:52.092Z,4.00
2023-04-06T09:37:56.443Z,4.20
2023-04-06T09:40:08.195Z,4.38
2023-04-06T09:42:11.997Z,4.30
2023-04-06T09:44:15.569Z,4.32
2023-04-06T09:46:22.195Z,4.95
2023-04-06T09:48:29.131Z,4.80
2023-04-06T09:50:34.625Z,4.07
2023-04-06T09:52:42.862Z,4.43
2023-04-06T09:54:52.272Z,4.53
2023-04-06T09:57:00.616Z,4.43
2023-04-06T09:59:08.159Z,4.35
2023-04-06T10:01:14.487Z,4.63
2023-04-06T10:03:30.067Z,4.57
2023-04-06T10:05:39.772Z,4.80
2023-04-06T10:07:59.059Z,4.47
2023-04-06T10:10:05.482Z,4.13
2023-04-06T10:12:11.665Z,4.07
2023-04-06T10:14:15.581Z,3.80
2023-04-06T10:16:19.623Z,3.53
2023-04-06T10:18:23.971Z,3.92
2023-04-06T10:20:33.217Z,4.22
2023-04-06T10:22:41.369Z,3.97
2023-04-06T10:24:44.892Z,3.60
2023-04-06T10:26:59.688Z,3.70
2023-04-06T10:29:06.604Z,4.20
2023-04-06T10:31:10.196Z,4.10
2023-04-06T10:33:16.780Z,4.45
2023-04-06T10:35:20.346Z,3.60
2023-04-06T10:37:24.963Z,3.92
2023-04-06T10:39:30.862Z,4.10
2023-04-06T10:41:36.402Z,3.85
2023-04-06T10:43:41.669Z,3.67
2023-04-06T10:45:46.970Z,4.05
2023-04-06T10:47:50.713Z,4.22
2023-04-06T10:49:54.366Z,3.95
2023-04-06T10:51:58.785Z,4.32
2023-04-06T10:54:06.070Z,4.45
2023-04-06T10:56:13.503Z,4.50
2023-04-06T10:58:17.091Z,4.40
2023-04-06T11:00:21.809Z,4.10
2023-04-06T11:02:26.924Z,4.95
2023-04-06T11:04:30.985Z,4.80
2023-04-06T11:06:34.671Z,4.60
2023-04-06T11:08:39.121Z,5.32
2023-04-06T11:10:42.787Z,4.80
2023-04-06T11:12:46.404Z,5.15
2023-04-06T11:14:56.975Z,4.72
2023-04-06T11:17:00.597Z,5.13
2023-04-06T11:19:08.116Z,5.30
2023-04-06T11:21:12.022Z,4.85
2023-04-06T11:23:24.981Z,5.50
2023-04-06T11:25:31.043Z,5.88
2023-04-06T11:27:35.520Z,5.63
2023-04-06T11:29:39.719Z,5.70
2023-04-06T11:31:44.740Z,4.93
2023-04-06T11:33:48.340Z,6.10
2023-04-06T11:35:53.480Z,6.55
2023-04-06T11:37:58.598Z,6.28
2023-04-06T11:40:04.021Z,5.85
2023-04-06T11:42:09.173Z,5.93
2023-04-06T11:44:13.231Z,5.68
2023-04-06T11:46:21.449Z,5.80
2023-04-06T11:48:27.925Z,6.07
2023-04-06T11:50:36.145Z,6.20
2023-04-06T11:52:42.058Z,6.47
2023-04-06T11:54:46.154Z,7.18
2023-04-06T11:56:50.100Z,6.70
2023-04-06T11:58:54.092Z,6.57
2023-04-06T12:01:05.953Z,6.45
2023-04-06T12:03:09.555Z,6.90
2023-04-06T12:05:13.516Z,6.07
2023-04-06T12:07:17.220Z,5.82
2023-04-06T12:09:22.241Z,6.00
2023-04-06T12:11:26.218Z,6.40
2023-04-06T12:13:30.798Z,6.22
2023-04-06T12:15:34.527Z,6.30
2023-04-06T12:17:38.503Z,6.35
2023-04-06T12:19:42.105Z,6.22
2023-04-06T12:21:45.664Z,6.25
2023-04-06T12:23:49.341Z,6.40
2023-04-06T12:25:55.611Z,6.53
2023-04-06T12:27:59.212Z,6.10
2023-04-06T12:30:03.607Z,6.70
2023-04-06T12:32:07.749Z,6.10
2023-04-06T12:34:11.306Z,6.10
2023-04-06T12:36:15.213Z,6.60
2023-04-06T12:38:19.010Z,6.47
2023-04-06T12:40:23.200Z,6.85
2023-04-06T12:42:28.242Z,7.20
2023-04-06T12:44:31.956Z,6.85
2023-04-06T12:46:36.294Z,6.43
2023-04-06T12:48:40.818Z,6.78
2023-04-06T12:50:44.602Z,6.75
2023-04-06T12:52:49.333Z,7.18
2023-04-06T12:54:53.838Z,7.00
2023-04-06T12:56:58.081Z,6.47
2023-04-06T12:59:03.266Z,6.85
2023-04-06T13:01:09.349Z,6.85
2023-04-06T13:03:13.104Z,7.25
2023-04-06T13:05:19.942Z,5.97
2023-04-06T13:07:23.926Z,6.43
2023-04-06T13:09:27.501Z,6.88
2023-04-06T13:11:32.100Z,6.63
2023-04-06T13:13:35.688Z,7.40
2023-04-06T13:15:40.752Z,7.50
2023-04-06T13:17:44.369Z,7.07
2023-04-06T13:19:48.062Z,7.22
2023-04-06T13:21:51.853Z,6.88
2023-04-06T13:23:55.674Z,7.18
2023-04-06T13:26:01.735Z,6.75
2023-04-06T13:28:05.720Z,7.15
2023-04-06T13:30:11.061Z,7.00
2023-04-06T13:32:16.940Z,7.20
2023-04-06T13:34:24.066Z,6.65
2023-04-06T13:36:30.999Z,6.80
2023-04-06T13:38:34.869Z,6.60
2023-04-06T13:40:41.163Z,7.32
2023-04-06T13:42:46.062Z,6.60
2023-04-06T13:44:51.726Z,7.55
2023-04-06T13:46:58.332Z,6.55
2023-04-06T13:49:03.684Z,6.75
2023-04-06T13:51:13.619Z,7.00
2023-04-06T13:53:17.359Z,6.72
2023-04-06T13:55:21.024Z,6.63
2023-04-06T13:57:24.649Z,6.65
2023-04-06T13:59:35.511Z,6.93
2023-04-06T14:01:40.854Z,7.20
2023-04-06T14:03:48.431Z,6.90
2023-04-06T14:05:54.007Z,6.57
2023-04-06T14:07:57.946Z,7.38
2023-04-06T14:10:01.511Z,6.85
2023-04-06T14:12:05.037Z,7.13
2023-04-06T14:14:08.555Z,6.28
2023-04-06T14:16:12.362Z,5.35
2023-04-06T14:18:16.240Z,5.35
2023-04-06T14:20:19.840Z,5.55
2023-04-06T14:22:24.746Z,5.82
2023-04-06T14:24:28.368Z,5.90
2023-04-06T14:26:33.128Z,5.57
2023-04-06T14:28:37.931Z,5.30
2023-04-06T14:30:41.602Z,5.57
2023-04-06T14:32:45.108Z,6.15
2023-04-06T14:34:48.677Z,5.32
2023-04-06T14:36:52.440Z,5.35
2023-04-06T14:38:59.189Z,5.53
2023-04-06T14:41:02.848Z,5.90
2023-04-06T14:43:06.412Z,6.55
2023-04-06T14:45:10.657Z,6.93
2023-04-06T14:47:16.805Z,7.20
2023-04-06T14:49:21.775Z,6.80
2023-04-06T14:51:29.091Z,6.68
2023-04-06T14:53:37.407Z,8.05
2023-04-06T14:55:45.497Z,6.70
2023-04-06T14:57:51.313Z,6.20
2023-04-06T15:00:01.627Z,6.03
2023-04-06T15:02:07.973Z,6.05
2023-04-06T15:04:16.185Z,6.65
2023-04-06T15:06:26.134Z,6.80
2023-04-06T15:08:39.201Z,6.70
2023-04-06T15:10:51.620Z,6.45
2023-04-06T15:12:57.583Z,6.47
2023-04-06T15:15:07.574Z,6.53
2023-04-06T15:17:11.035Z,6.95
2023-04-06T15:19:17.130Z,6.82
2023-04-06T15:21:29.328Z,6.97
2023-04-06T15:23:35.620Z,6.82
2023-04-06T15:25:44.320Z,6.72
2023-04-06T15:27:52.323Z,6.13
2023-04-06T15:29:56.676Z,6.53
2023-04-06T15:32:00.158Z,6.43
2023-04-06T15:34:03.666Z,6.00
2023-04-06T15:36:10.820Z,6.50
2023-04-06T15:38:14.524Z,6.30
2023-04-06T15:40:17.948Z,6.25
2023-04-06T15:42:21.433Z,5.85
2023-04-06T15:44:27.228Z,6.28
2023-04-06T15:46:30.976Z,6.07
2023-04-06T15:48:34.950Z,6.95
2023-04-06T15:50:38.827Z,6.38
2023-04-06T15:52:42.288Z,6.50
2023-04-06T15:54:46.208Z,7.28
2023-04-06T15:56:50.659Z,7.03
2023-04-06T15:58:54.179Z,7.20
2023-04-06T16:00:59.417Z,6.65
2023-04-06T16:03:03.052Z,6.53
2023-04-06T16:05:07.106Z,5.90
2023-04-06T16:07:10.722Z,6.20
2023-04-06T16:09:14.159Z,6.18
2023-04-06T16:11:17.606Z,6.22
2023-04-06T16:13:21.618Z,6.60
2023-04-06T16:15:25.107Z,6.78
2023-04-06T16:17:30.016Z,6.30
2023-04-06T16:19:33.573Z,6.70
2023-04-06T16:21:37.018Z,7.07
2023-04-06T16:23:42.138Z,6.63
2023-04-06T16:25:45.898Z,6.65
2023-04-06T16:27:49.429Z,6.63
2023-04-06T16:29:52.912Z,6.30
2023-04-06T16:31:56.332Z,6.60
2023-04-06T16:34:01.172Z,6.72
2023-04-06T16:36:04.668Z,6.35
2023-04-06T16:38:08.177Z,6.43
2023-04-06T16:40:12.244Z,6.40
2023-04-06T16:42:17.656Z,6.57
2023-04-06T16:44:21.092Z,6.45
2023-04-06T16:46:30.843Z,6.53
2023-04-06T16:48:34.317Z,6.60
2023-04-06T16:50:39.121Z,6.57
2023-04-06T16:52:43.027Z,7.63
2023-04-06T16:54:46.559Z,6.88
2023-04-06T16:56:50.013Z,7.13
2023-04-06T16:58:53.532Z,6.75
2023-04-06T17:00:57.048Z,6.70
2023-04-06T17:03:00.744Z,6.85
2023-04-06T17:05:04.859Z,6.93
2023-04-06T17:07:10.891Z,6.30
2023-04-06T17:09:14.407Z,7.47
2023-04-06T17:11:23.514Z,6.78
2023-04-06T17:13:31.443Z,6.95
2023-04-06T17:15:35.284Z,6.78
2023-04-06T17:17:39.135Z,7.07
2023-04-06T17:19:42.580Z,7.68
2023-04-06T17:21:46.106Z,7.30
2023-04-06T17:23:51.068Z,7.20
2023-04-06T17:25:57.582Z,7.38
2023-04-06T17:28:01.477Z,6.75
2023-04-06T17:30:06.818Z,7.13
2023-04-06T17:32:10.267Z,7.25
2023-04-06T17:34:13.659Z,7.07
2023-04-06T17:36:17.061Z,7.25
2023-04-06T17:38:21.234Z,6.95
2023-04-06T17:40:26.350Z,6.50
2023-04-06T17:42:29.838Z,7.60
2023-04-06T17:44:33.527Z,7.00
2023-04-06T17:46:37.015Z,6.93
2023-04-06T17:48:40.669Z,6.72
2023-04-06T17:50:44.581Z,7.03
2023-04-06T17:52:49.928Z,6.80
2023-04-06T17:54:53.708Z,6.97
2023-04-06T17:56:58.691Z,6.82
2023-04-06T17:59:02.657Z,7.32
2023-04-06T18:01:08.479Z,6.80
2023-04-06T18:03:12.026Z,7.07
2023-04-06T18:05:15.501Z,6.88
2023-04-06T18:07:18.890Z,7.80
2023-04-06T18:09:22.448Z,7.00
2023-04-06T18:11:27.572Z,7.18
2023-04-06T18:13:32.537Z,7.57
2023-04-06T18:15:38.372Z,7.63
2023-04-06T18:17:41.930Z,6.90
2023-04-06T18:19:45.495Z,6.82
2023-04-06T18:21:48.991Z,7.30
2023-04-06T18:23:53.440Z,6.85
2023-04-06T18:25:56.978Z,7.10
2023-04-06T18:28:00.463Z,8.02
2023-04-06T18:30:06.021Z,7.90
2023-04-06T18:32:09.417Z,7.63
2023-04-06T18:34:12.922Z,7.05
2023-04-06T18:36:16.463Z,7.88
2023-04-06T18:38:19.905Z,7.50
2023-04-06T18:40:33.175Z,7.53
2023-04-06T18:42:38.214Z,7.97
2023-04-06T18:44:41.582Z,8.30
2023-04-06T18:46:47.470Z,7.28
2023-04-06T18:48:50.926Z,7.65
2023-04-06T18:50:55.153Z,7.90
2023-04-06T18:52:58.658Z,7.93
2023-04-06T18:55:02.275Z,7.90
2023-04-06T18:57:06.220Z,7.88
2023-04-06T18:59:10.814Z,7.85
2023-04-06T19:01:21.841Z,8.02
2023-04-06T19:03:27.751Z,7.78
2023-04-06T19:05:31.388Z,7.60
2023-04-06T19:07:36.138Z,7.80
2023-04-06T19:09:39.603Z,7.35
2023-04-06T19:11:43.096Z,7.80
2023-04-06T19:13:50.302Z,7.85
2023-04-06T19:15:53.934Z,9.50
2023-04-06T19:17:57.447Z,8.52
2023-04-06T19:20:02.981Z,8.93
2023-04-06T19:22:06.724Z,9.55
2023-04-06T19:24:13.469Z,8.98
2023-04-06T19:26:18.148Z,9.70
2023-04-06T19:28:21.651Z,9.70
2023-04-06T19:30:25.443Z,9.57
2023-04-06T19:32:30.294Z,9.05
2023-04-06T19:34:34.033Z,9.05
2023-04-06T19:36:38.978Z,8.48
2023-04-06T19:38:42.603Z,8.93
2023-04-06T19:40:46.366Z,9.23
2023-04-06T19:42:49.821Z,9.30
2023-04-06T19:44:53.300Z,10.38
2023-04-06T19:46:57.074Z,11.10
2023-04-06T19:49:01.926Z,11.95
2023-04-06T19:51:05.408Z,12.52
2023-04-06T19:53:10.355Z,12.77
2023-04-06T19:55:13.886Z,13.45
2023-04-06T19:57:17.473Z,14.23
2023-04-06T19:59:21.566Z,14.13
2023-04-06T20:01:25.115Z,14.60
2023-04-06T20:03:28.749Z,14.20
2023-04-06T20:05:35.854Z,14.20
2023-04-06T20:07:41.232Z,13.80
2023-04-06T20:09:47.013Z,14.50
2023-04-06T20:11:50.717Z,13.27
2023-04-06T20:13:54.238Z,13.10
2023-04-06T20:15:59.060Z,12.63
2023-04-06T20:18:04.473Z,12.55
2023-04-06T20:20:09.328Z,11.55
2023-04-06T20:22:13.703Z,11.30
2023-04-06T20:24:19.280Z,10.98
2023-04-06T20:26:24.197Z,10.77
2023-04-06T20:28:27.668Z,11.60
2023-04-06T20:30:31.843Z,11.68
2023-04-06T20:32:35.361Z,10.88
2023-04-06T20:34:39.186Z,11.20
2023-04-06T20:36:43.394Z,10.75
2023-04-06T20:38:47.060Z,11.55
2023-04-06T20:40:50.503Z,10.48
2023-04-06T20:42:58.038Z,11.50
2023-04-06T20:45:03.280Z,10.57
2023-04-06T20:47:08.056Z,10.15
2023-04-06T20:49:12.841Z,10.10
2023-04-06T20:51:20.651Z,11.02
2023-04-06T20:53:24.451Z,10.88
2023-04-06T20:55:31.354Z,10.00
2023-04-06T20:57:38.004Z,10.00
2023-04-06T20:59:46.352Z,10.27
2023-04-06T21:01:49.917Z,11.27
2023-04-06T21:03:54.029Z,10.38
2023-04-06T21:06:00.017Z,10.63
2023-04-06T21:08:03.760Z,10.07
2023-04-06T21:10:09.573Z,10.00
2023-04-06T21:12:13.780Z,10.57
2023-04-06T21:14:19.446Z,10.95
2023-04-06T21:16:27.873Z,10.63
2023-04-06T21:18:32.763Z,10.48
2023-04-06T21:20:37.154Z,11.48
2023-04-06T21:22:42.129Z,10.38
2023-04-06T21:24:47.726Z,10.13
2023-04-06T21:26:51.901Z,10.82
2023-04-06T21:28:55.615Z,10.77
2023-04-06T21:31:01.085Z,11.23
2023-04-06T21:33:06.732Z,11.10
2023-04-06T21:35:11.994Z,10.43
2023-04-06T21:37:17.162Z,10.88
2023-04-06T21:39:24.106Z,10.60
2023-04-06T21:41:30.163Z,10.75
2023-04-06T21:43:34.063Z,10.25
2023-04-06T21:45:38.117Z,10.98
2023-04-06T21:47:41.944Z,10.77
2023-04-06T21:49:47.100Z,11.85
2023-04-06T21:51:50.912Z,10.90
2023-04-06T21:53:56.554Z,10.55
2023-04-06T21:56:01.187Z,10.82
2023-04-06T21:58:05.352Z,10.32
2023-04-06T22:00:10.995Z,10.40
2023-04-06T22:02:21.178Z,11.07
2023-04-06T22:04:25.639Z,10.68
2023-04-06T22:06:30.844Z,11.25
2023-04-06T22:08:35.073Z,10.13
2023-04-06T22:10:40.107Z,11.50
2023-04-06T22:12:43.806Z,11.30
2023-04-06T22:14:47.413Z,10.93
2023-04-06T22:16:51.097Z,10.73
2023-04-06T22:18:54.636Z,11.35
2023-04-06T22:20:58.329Z,11.07
2023-04-06T22:23:03.354Z,11.25
2023-04-06T22:25:08.735Z,10.95
2023-04-06T22:27:12.271Z,11.23
2023-04-06T22:29:15.749Z,11.27
2023-04-06T22:31:19.250Z,10.70
2023-04-06T22:33:22.825Z,11.52
2023-04-06T22:35:26.480Z,11.30
2023-04-06T22:37:30.080Z,10.95
2023-04-06T22:39:35.024Z,11.43
2023-04-06T22:41:38.494Z,10.30
2023-04-06T22:43:42.489Z,10.88
2023-04-06T22:45:46.068Z,10.05
2023-04-06T22:47:49.605Z,10.73
2023-04-06T22:49:53.140Z,10.90
2023-04-06T22:51:56.737Z,10.90
2023-04-06T22:54:00.553Z,10.98
2023-04-06T22:56:05.637Z,10.82
2023-04-06T22:58:09.221Z,11.07
2023-04-06T23:00:13.764Z,11.07
2023-04-06T23:02:17.354Z,10.85
2023-04-06T23:04:21.211Z,10.95
2023-04-06T23:06:24.883Z,10.65
2023-04-06T23:08:28.286Z,10.27
2023-04-06T23:10:31.689Z,10.60
2023-04-06T23:12:36.544Z,10.20
2023-04-06T23:14:39.989Z,9.93
2023-04-06T23:16:43.526Z,10.05
2023-04-06T23:18:47.010Z,10.15
2023-04-06T23:20:50.539Z,9.85
2023-04-06T23:22:53.942Z,9.38
2023-04-06T23:24:57.364Z,10.27
2023-04-06T23:27:00.776Z,10.20
2023-04-06T23:29:05.562Z,9.85
2023-04-06T23:31:09.069Z,9.75
2023-04-06T23:33:13.034Z,10.10
2023-04-06T23:35:16.422Z,9.80
2023-04-06T23:37:19.844Z,9.95
2023-04-06T23:39:23.319Z,10.00
2023-04-06T23:41:27.249Z,9.48
2023-04-06T23:43:30.730Z,9.18
2023-04-06T23:45:35.511Z,9.57
2023-04-06T23:47:38.991Z,9.70
2023-04-06T23:49:42.449Z,9.60
2023-04-06T23:51:45.934Z,8.98
2023-04-06T23:53:49.292Z,9.27
2023-04-06T23:55:53.081Z,9.23
2023-04-06T23:57:56.685Z,9.30
